createdAt,value
2018-07-19T00:00:48.416Z,56.48
2018-07-19T00:01:55.202Z,56.54
2018-07-19T00:03:02.067Z,56.52
2018-07-19T00:04:08.903Z,56.54
2018-07-19T00:05:15.671Z,56.58
2018-07-19T00:06:22.523Z,56.63
2018-07-19T00:07:29.286Z,56.64
2018-07-19T00:08:36.111Z,56.68
2018-07-19T00:09:42.975Z,56.73
2018-07-19T00:10:49.766Z,56.67
2018-07-19T00:11:56.846Z,56.73
2018-07-19T00:13:03.595Z,56.80
2018-07-19T00:14:10.395Z,56.83
2018-07-19T00:15:17.227Z,56.88
2018-07-19T00:16:24.015Z,56.97
2018-07-19T00:17:30.785Z,56.97
2018-07-19T00:18:37.530Z,56.97
2018-07-19T00:19:44.314Z,57.05
2018-07-19T00:20:51.047Z,57.06
2018-07-19T00:21:58.133Z,57.16
2018-07-19T00:23:04.903Z,57.07
2018-07-19T00:24:11.646Z,57.07
2018-07-19T00:25:18.410Z,57.12
2018-07-19T00:26:25.243Z,57.12
2018-07-19T00:27:32.034Z,57.19
2018-07-19T00:28:38.819Z,57.26
2018-07-19T00:29:45.707Z,57.32
2018-07-19T00:30:52.447Z,57.38
2018-07-19T00:31:59.277Z,57.41
2018-07-19T00:33:06.028Z,57.41
2018-07-19T00:34:12.819Z,57.51
2018-07-19T00:35:19.603Z,57.57
2018-07-19T00:36:26.358Z,57.53
2018-07-19T00:37:33.118Z,57.61
2018-07-19T00:38:39.903Z,57.60
2018-07-19T00:39:46.651Z,57.60
2018-07-19T00:40:53.408Z,57.65
2018-07-19T00:42:00.250Z,57.58
2018-07-19T00:43:07.019Z,57.65
2018-07-19T00:44:13.785Z,57.66
2018-07-19T00:45:20.819Z,57.65
2018-07-19T00:46:27.567Z,57.70
2018-07-19T00:47:34.346Z,57.73
2018-07-19T00:48:41.079Z,57.79
2018-07-19T00:49:47.903Z,57.87
2018-07-19T00:50:54.707Z,57.90
2018-07-19T00:52:01.519Z,57.84
2018-07-19T00:53:08.350Z,57.87
2018-07-19T00:54:15.149Z,57.90
2018-07-19T00:55:22.001Z,57.98
2018-07-19T00:56:28.822Z,57.97
2018-07-19T00:57:35.597Z,58.03
2018-07-19T00:58:42.354Z,58.06
2018-07-19T00:59:49.122Z,58.16
2018-07-19T01:00:55.903Z,58.18
2018-07-19T01:02:02.674Z,58.18
2018-07-19T01:03:09.518Z,58.27
2018-07-19T01:04:16.319Z,58.26
2018-07-19T01:05:23.098Z,58.22
2018-07-19T01:06:30.158Z,58.25
2018-07-19T01:07:36.952Z,58.25
2018-07-19T01:08:43.726Z,58.27
2018-07-19T01:09:50.575Z,58.33
2018-07-19T01:10:57.354Z,58.41
2018-07-19T01:12:04.115Z,58.52
2018-07-19T01:13:10.936Z,58.52
2018-07-19T01:14:17.694Z,58.54
2018-07-19T01:15:24.469Z,58.59
2018-07-19T01:16:31.235Z,58.65
2018-07-19T01:17:38.006Z,58.73
2018-07-19T01:18:44.797Z,58.78
2018-07-19T01:19:51.569Z,58.78
2018-07-19T01:20:58.390Z,58.82
2018-07-19T01:22:05.270Z,58.85
2018-07-19T01:23:12.091Z,58.87
2018-07-19T01:24:18.847Z,58.86
2018-07-19T01:25:25.713Z,58.90
2018-07-19T01:26:32.459Z,58.92
2018-07-19T01:27:39.272Z,59.02
2018-07-19T01:28:46.063Z,59.07
2018-07-19T01:29:52.886Z,59.07
2018-07-19T01:30:59.651Z,59.08
2018-07-19T01:32:06.424Z,58.94
2018-07-19T01:33:13.354Z,58.94
2018-07-19T01:34:20.087Z,58.96
2018-07-19T01:35:26.914Z,58.94
2018-07-19T01:36:33.712Z,59.00
2018-07-19T01:37:40.511Z,59.08
2018-07-19T01:38:47.316Z,59.14
2018-07-19T01:39:54.151Z,59.24
2018-07-19T01:41:00.915Z,59.10
2018-07-19T01:42:07.661Z,59.05
2018-07-19T01:43:14.790Z,59.12
2018-07-19T01:44:21.571Z,59.23
2018-07-19T01:45:28.415Z,59.24
2018-07-19T01:46:35.179Z,59.29
2018-07-19T01:47:41.951Z,59.22
2018-07-19T01:48:48.730Z,59.21
2018-07-19T01:49:55.508Z,59.28
2018-07-19T01:51:02.290Z,59.34
2018-07-19T01:52:09.095Z,59.39
2018-07-19T01:53:16.167Z,59.41
2018-07-19T01:54:22.923Z,59.41
2018-07-19T01:55:29.697Z,59.44
2018-07-19T01:56:36.475Z,59.50
2018-07-19T01:57:43.250Z,59.57
2018-07-19T01:58:49.997Z,59.59
2018-07-19T01:59:56.822Z,59.61
2018-07-19T02:01:03.569Z,59.63
2018-07-19T02:02:10.355Z,59.65
2018-07-19T02:03:17.455Z,59.73
2018-07-19T02:04:24.217Z,59.71
2018-07-19T02:05:31.047Z,59.80
2018-07-19T02:06:37.826Z,59.74
2018-07-19T02:07:44.910Z,59.71
2018-07-19T02:08:51.663Z,59.73
2018-07-19T02:09:58.422Z,59.73
2018-07-19T02:11:05.239Z,59.86
2018-07-19T02:12:11.978Z,59.92
2018-07-19T02:13:18.787Z,59.97
2018-07-19T02:14:25.668Z,59.97
2018-07-19T02:15:32.439Z,59.78
2018-07-19T02:16:39.239Z,59.75
2018-07-19T02:17:46.079Z,59.83
2018-07-19T02:18:52.863Z,59.82
2018-07-19T02:19:59.662Z,59.90
2018-07-19T02:21:06.510Z,59.89
2018-07-19T02:22:13.273Z,59.77
2018-07-19T02:23:20.044Z,59.79
2018-07-19T02:24:26.849Z,59.70
2018-07-19T02:25:33.646Z,59.77
2018-07-19T02:26:40.423Z,59.72
2018-07-19T02:27:47.194Z,59.81
2018-07-19T02:28:54.044Z,59.83
2018-07-19T02:30:00.942Z,59.86
2018-07-19T02:31:07.855Z,59.90
2018-07-19T02:32:14.634Z,59.98
2018-07-19T02:33:21.441Z,60.01
2018-07-19T02:34:28.245Z,60.04
2018-07-19T02:35:35.055Z,60.09
2018-07-19T02:36:41.847Z,60.09
2018-07-19T02:37:48.683Z,60.13
2018-07-19T02:38:55.460Z,60.16
2018-07-19T02:40:02.275Z,60.16
2018-07-19T02:41:09.127Z,60.21
2018-07-19T02:42:15.898Z,60.12
2018-07-19T02:43:22.702Z,60.21
2018-07-19T02:44:29.562Z,60.21
2018-07-19T02:45:36.351Z,60.27
2018-07-19T02:46:43.142Z,60.36
2018-07-19T02:47:50.260Z,60.38
2018-07-19T02:48:57.140Z,60.40
2018-07-19T02:50:03.934Z,60.43
2018-07-19T02:51:10.919Z,60.49
2018-07-19T02:52:17.786Z,60.53
2018-07-19T02:53:24.539Z,60.59
2018-07-19T02:54:31.409Z,60.65
2018-07-19T02:55:38.183Z,60.67
2018-07-19T02:56:44.949Z,60.70
2018-07-19T02:57:51.810Z,60.74
2018-07-19T02:58:58.612Z,60.77
2018-07-19T03:00:05.625Z,60.80
2018-07-19T03:01:12.518Z,60.88
2018-07-19T03:02:19.370Z,60.97
2018-07-19T03:03:26.175Z,61.01
2018-07-19T03:04:32.978Z,61.03
2018-07-19T03:05:39.851Z,60.98
2018-07-19T03:06:46.679Z,60.96
2018-07-19T03:07:53.591Z,60.97
2018-07-19T03:09:00.383Z,61.04
2018-07-19T03:10:07.353Z,61.06
2018-07-19T03:11:14.172Z,61.10
2018-07-19T03:12:21.010Z,61.09
2018-07-19T03:13:27.799Z,61.11
2018-07-19T03:14:34.621Z,61.14
2018-07-19T03:15:41.603Z,61.04
2018-07-19T03:16:48.421Z,61.08
2018-07-19T03:17:55.213Z,61.04
2018-07-19T03:19:02.010Z,61.11
2018-07-19T03:20:08.816Z,61.11
2018-07-19T03:21:15.598Z,61.15
2018-07-19T03:22:22.438Z,61.16
2018-07-19T03:23:29.223Z,61.13
2018-07-19T03:24:36.302Z,61.18
2018-07-19T03:25:43.133Z,61.16
2018-07-19T03:26:50.043Z,61.20
2018-07-19T03:27:56.814Z,61.18
2018-07-19T03:29:03.615Z,61.15
2018-07-19T03:30:10.442Z,61.16
2018-07-19T03:31:17.253Z,61.22
2018-07-19T03:32:24.263Z,61.19
2018-07-19T03:33:31.055Z,61.19
2018-07-19T03:34:38.201Z,61.23
2018-07-19T03:35:44.671Z,61.23
2018-07-19T03:36:51.507Z,61.19
2018-07-19T03:37:58.288Z,61.26
2018-07-19T03:39:05.118Z,61.38
2018-07-19T03:40:11.991Z,61.34
2018-07-19T03:41:18.746Z,61.39
2018-07-19T03:42:25.587Z,61.38
2018-07-19T03:43:32.374Z,61.35
2018-07-19T03:44:39.169Z,61.41
2018-07-19T03:45:46.066Z,61.36
2018-07-19T03:46:52.899Z,61.42
2018-07-19T03:47:59.842Z,61.47
2018-07-19T03:49:06.639Z,61.51
2018-07-19T03:50:13.426Z,61.49
2018-07-19T03:51:20.287Z,61.52
2018-07-19T03:52:27.081Z,61.56
2018-07-19T03:53:33.883Z,61.56
2018-07-19T03:54:40.722Z,61.54
2018-07-19T03:55:47.522Z,61.56
2018-07-19T03:56:54.332Z,61.58
2018-07-19T03:58:01.158Z,61.60
2018-07-19T03:59:08.017Z,61.63
2018-07-19T04:00:14.957Z,61.62
2018-07-19T04:01:21.774Z,61.70
2018-07-19T04:02:28.599Z,61.74
2018-07-19T04:03:35.407Z,61.80
2018-07-19T04:04:42.175Z,61.86
2018-07-19T04:05:48.998Z,61.85
2018-07-19T04:06:55.834Z,61.84
2018-07-19T04:08:02.620Z,61.85
2018-07-19T04:09:09.460Z,61.89
2018-07-19T04:10:16.255Z,61.86
2018-07-19T04:11:23.080Z,61.86
2018-07-19T04:12:29.853Z,61.89
2018-07-19T04:13:36.685Z,61.95
2018-07-19T04:14:43.471Z,62.02
2018-07-19T04:15:50.247Z,62.15
2018-07-19T04:16:57.144Z,62.16
2018-07-19T04:18:03.939Z,62.16
2018-07-19T04:19:10.746Z,62.23
2018-07-19T04:20:17.546Z,62.27
2018-07-19T04:21:24.439Z,62.33
2018-07-19T04:22:31.346Z,62.38
2018-07-19T04:23:38.112Z,62.39
2018-07-19T04:24:44.913Z,62.49
2018-07-19T04:25:51.791Z,62.52
2018-07-19T04:26:58.609Z,62.58
2018-07-19T04:28:05.415Z,62.64
2018-07-19T04:29:12.239Z,62.66
2018-07-19T04:30:19.000Z,62.67
2018-07-19T04:31:25.830Z,62.69
2018-07-19T04:32:32.665Z,62.77
2018-07-19T04:33:39.714Z,62.78
2018-07-19T04:34:46.462Z,62.81
2018-07-19T04:35:53.239Z,62.93
2018-07-19T04:37:00.011Z,63.05
2018-07-19T04:38:06.928Z,63.08
2018-07-19T04:39:13.676Z,63.11
2018-07-19T04:40:20.407Z,63.25
2018-07-19T04:41:27.431Z,63.36
2018-07-19T04:42:34.196Z,63.32
2018-07-19T04:43:41.135Z,63.35
2018-07-19T04:44:47.906Z,63.42
2018-07-19T04:45:54.653Z,63.47
2018-07-19T04:47:01.406Z,63.54
2018-07-19T04:48:08.261Z,63.59
2018-07-19T04:49:15.011Z,63.60
2018-07-19T04:50:21.768Z,63.61
2018-07-19T04:51:28.679Z,63.72
2018-07-19T04:52:35.449Z,63.77
2018-07-19T04:53:42.218Z,63.88
2018-07-19T04:54:49.080Z,63.91
2018-07-19T04:55:55.842Z,63.96
2018-07-19T04:57:02.610Z,64.00
2018-07-19T04:58:09.366Z,64.05
2018-07-19T04:59:16.191Z,64.18
2018-07-19T05:00:23.026Z,64.33
2018-07-19T05:01:29.816Z,64.40
2018-07-19T05:02:36.671Z,64.46
2018-07-19T05:03:43.497Z,64.54
2018-07-19T05:04:50.262Z,64.64
2018-07-19T05:05:57.074Z,64.70
2018-07-19T05:07:03.843Z,64.76
2018-07-19T05:08:10.610Z,64.84
2018-07-19T05:09:17.363Z,64.95
2018-07-19T05:10:24.134Z,64.99
2018-07-19T05:11:30.935Z,65.06
2018-07-19T05:12:37.698Z,65.08
2018-07-19T05:13:44.799Z,65.16
2018-07-19T05:14:51.547Z,65.23
2018-07-19T05:15:58.353Z,65.29
2018-07-19T05:17:05.131Z,65.35
2018-07-19T05:18:11.934Z,65.46
2018-07-19T05:19:18.674Z,65.55
2018-07-19T05:20:25.430Z,65.63
2018-07-19T05:21:32.231Z,65.73
2018-07-19T05:22:39.318Z,65.79
2018-07-19T05:23:46.042Z,65.87
2018-07-19T05:24:52.810Z,65.96
2018-07-19T05:25:59.649Z,65.99
2018-07-19T05:27:06.471Z,66.01
2018-07-19T05:28:13.230Z,66.08
2018-07-19T05:29:20.099Z,66.13
2018-07-19T05:30:26.855Z,66.23
2018-07-19T05:31:33.667Z,66.30
2018-07-19T05:32:40.452Z,66.37
2018-07-19T05:33:47.211Z,66.44
2018-07-19T05:34:53.973Z,66.55
2018-07-19T05:36:00.746Z,66.66
2018-07-19T05:37:07.657Z,66.77
2018-07-19T05:38:14.410Z,66.87
2018-07-19T05:39:21.185Z,66.93
2018-07-19T05:40:27.968Z,67.02
2018-07-19T05:41:34.739Z,67.08
2018-07-19T05:42:41.563Z,67.20
2018-07-19T05:43:48.331Z,67.40
2018-07-19T05:44:55.175Z,67.47
2018-07-19T05:46:01.922Z,67.57
2018-07-19T05:47:08.758Z,67.52
2018-07-19T05:48:15.842Z,67.58
2018-07-19T05:49:22.613Z,67.69
2018-07-19T05:50:29.385Z,67.83
2018-07-19T05:51:36.142Z,68.00
2018-07-19T05:52:42.933Z,68.17
2018-07-19T05:53:49.812Z,68.20
2018-07-19T05:54:56.587Z,68.31
2018-07-19T05:56:03.337Z,68.38
2018-07-19T05:57:10.262Z,68.52
2018-07-19T05:58:17.054Z,68.58
2018-07-19T05:59:24.018Z,68.54
2018-07-19T06:00:30.805Z,68.52
2018-07-19T06:01:37.571Z,68.62
2018-07-19T06:02:44.480Z,68.64
2018-07-19T06:03:51.236Z,68.74
2018-07-19T06:04:58.230Z,68.81
2018-07-19T06:06:04.991Z,68.92
2018-07-19T06:07:11.816Z,69.03
2018-07-19T06:08:18.648Z,69.14
2018-07-19T06:09:25.506Z,69.21
2018-07-19T06:10:32.267Z,69.30
2018-07-19T06:11:39.111Z,69.35
2018-07-19T06:12:46.065Z,69.48
2018-07-19T06:13:52.896Z,69.38
2018-07-19T06:14:59.670Z,69.49
2018-07-19T06:16:06.691Z,69.54
2018-07-19T06:17:13.454Z,69.60
2018-07-19T06:18:20.248Z,69.66
2018-07-19T06:19:27.009Z,69.75
2018-07-19T06:20:34.072Z,69.79
2018-07-19T06:21:40.915Z,69.90
2018-07-19T06:22:47.697Z,70.05
2018-07-19T06:23:54.462Z,70.19
2018-07-19T06:25:01.214Z,70.34
2018-07-19T06:26:08.129Z,70.56
2018-07-19T06:27:14.939Z,70.75
2018-07-19T06:28:21.823Z,70.92
2018-07-19T06:29:28.568Z,71.01
2018-07-19T06:30:35.358Z,70.99
2018-07-19T06:31:42.196Z,71.01
2018-07-19T06:32:48.982Z,71.06
2018-07-19T06:33:55.783Z,71.18
2018-07-19T06:35:02.624Z,71.21
2018-07-19T06:36:09.478Z,71.21
2018-07-19T06:37:16.291Z,71.28
2018-07-19T06:38:23.074Z,71.40
2018-07-19T06:39:29.827Z,71.59
2018-07-19T06:40:36.627Z,71.77
2018-07-19T06:41:43.443Z,71.78
2018-07-19T06:42:50.238Z,71.88
2018-07-19T06:43:57.029Z,71.91
2018-07-19T06:45:03.835Z,71.95
2018-07-19T06:46:10.631Z,72.05
2018-07-19T06:47:17.483Z,72.21
2018-07-19T06:48:24.250Z,72.40
2018-07-19T06:49:31.055Z,72.50
2018-07-19T06:50:37.823Z,72.56
2018-07-19T06:51:44.643Z,72.70
2018-07-19T06:52:51.447Z,72.87
2018-07-19T06:53:58.251Z,73.10
2018-07-19T06:55:05.090Z,73.12
2018-07-19T06:56:11.851Z,73.25
2018-07-19T06:57:18.648Z,73.54
2018-07-19T06:58:25.488Z,73.72
2018-07-19T06:59:32.233Z,74.01
2018-07-19T07:00:39.006Z,74.18
2018-07-19T07:01:45.758Z,74.30
2018-07-19T07:02:52.579Z,74.46
2018-07-19T07:03:59.346Z,74.65
2018-07-19T07:05:06.099Z,74.84
2018-07-19T07:06:12.981Z,74.76
2018-07-19T07:07:19.827Z,74.96
2018-07-19T07:08:26.779Z,75.18
2018-07-19T07:09:33.588Z,75.31
2018-07-19T07:10:40.546Z,75.46
2018-07-19T07:11:47.299Z,75.37
2018-07-19T07:12:54.523Z,75.51
2018-07-19T07:14:00.826Z,75.63
2018-07-19T07:15:07.797Z,75.75
2018-07-19T07:16:14.621Z,75.90
2018-07-19T07:17:21.642Z,75.86
2018-07-19T07:18:28.398Z,75.84
2018-07-19T07:19:35.187Z,75.79
2018-07-19T07:20:41.992Z,75.88
2018-07-19T07:21:48.799Z,75.85
2018-07-19T07:22:55.628Z,76.03
2018-07-19T07:24:02.459Z,75.93
2018-07-19T07:25:09.296Z,75.84
2018-07-19T07:26:16.128Z,75.86
2018-07-19T07:27:22.976Z,75.93
2018-07-19T07:28:29.831Z,75.88
2018-07-19T07:29:36.614Z,75.79
2018-07-19T07:30:43.604Z,75.80
2018-07-19T07:31:50.506Z,75.84
2018-07-19T07:32:57.433Z,75.82
2018-07-19T07:34:04.270Z,75.70
2018-07-19T07:35:10.995Z,75.78
2018-07-19T07:36:17.835Z,75.72
2018-07-19T07:37:24.699Z,75.46
2018-07-19T07:38:31.662Z,75.49
2018-07-19T07:39:38.458Z,75.64
2018-07-19T07:40:45.281Z,75.79
2018-07-19T07:41:52.226Z,75.82
2018-07-19T07:44:06.005Z,76.14
2018-07-19T07:45:12.931Z,76.23
2018-07-19T07:46:19.741Z,75.69
2018-07-19T07:47:26.615Z,75.68
2018-07-19T07:48:33.471Z,75.53
2018-07-19T07:49:40.230Z,75.51
2018-07-19T07:50:47.015Z,75.29
2018-07-19T07:51:53.898Z,75.10
2018-07-19T07:53:00.761Z,74.97
2018-07-19T07:54:07.861Z,74.76
2018-07-19T07:55:14.600Z,74.62
2018-07-19T07:56:21.442Z,74.44
2018-07-19T07:57:28.261Z,74.34
2018-07-19T07:58:35.280Z,74.24
2018-07-19T07:59:42.065Z,74.06
2018-07-19T08:00:48.838Z,73.86
2018-07-19T08:01:55.670Z,73.66
2018-07-19T08:03:02.567Z,73.90
2018-07-19T08:04:09.391Z,73.71
2018-07-19T08:05:16.162Z,73.52
2018-07-19T08:06:22.931Z,73.46
2018-07-19T08:07:29.831Z,73.52
2018-07-19T08:08:36.698Z,73.39
2018-07-19T08:09:43.607Z,73.08
2018-07-19T08:10:50.495Z,72.91
2018-07-19T08:11:57.405Z,72.84
2018-07-19T08:13:04.280Z,72.93
2018-07-19T08:14:11.172Z,72.85
2018-07-19T08:15:18.083Z,72.81
2018-07-19T08:16:24.975Z,72.60
2018-07-19T08:17:31.858Z,72.39
2018-07-19T08:18:38.850Z,72.50
2018-07-19T08:19:45.711Z,72.23
2018-07-19T08:20:52.811Z,72.17
2018-07-19T08:21:59.678Z,72.04
2018-07-19T08:23:06.571Z,72.03
2018-07-19T08:24:13.333Z,72.07
2018-07-19T08:25:20.174Z,71.98
2018-07-19T08:26:26.994Z,71.81
2018-07-19T08:27:33.729Z,71.44
2018-07-19T08:28:40.609Z,71.17
2018-07-19T08:29:47.364Z,70.99
2018-07-19T08:30:54.166Z,70.98
2018-07-19T08:32:01.054Z,70.85
2018-07-19T08:33:07.869Z,70.65
2018-07-19T08:34:14.817Z,70.42
2018-07-19T08:35:21.574Z,70.30
2018-07-19T08:36:28.395Z,70.34
2018-07-19T08:37:35.274Z,70.12
2018-07-19T08:38:42.034Z,69.97
2018-07-19T08:39:49.070Z,69.75
2018-07-19T08:40:55.823Z,69.52
2018-07-19T08:42:02.641Z,69.43
2018-07-19T08:43:09.526Z,69.28
2018-07-19T08:44:16.299Z,69.11
2018-07-19T08:45:23.036Z,68.94
2018-07-19T08:46:29.803Z,68.95
2018-07-19T08:47:36.595Z,68.91
2018-07-19T08:48:43.366Z,68.89
2018-07-19T08:49:50.146Z,68.69
2018-07-19T08:50:56.924Z,68.64
2018-07-19T08:52:03.739Z,68.58
2018-07-19T08:53:10.631Z,68.24
2018-07-19T08:54:17.466Z,67.85
2018-07-19T08:55:24.251Z,67.57
2018-07-19T08:56:31.141Z,67.58
2018-07-19T08:57:37.979Z,67.52
2018-07-19T08:58:44.815Z,67.23
2018-07-19T08:59:51.684Z,66.97
2018-07-19T09:00:58.453Z,66.93
2018-07-19T09:02:05.215Z,66.77
2018-07-19T09:03:12.015Z,66.73
2018-07-19T09:04:18.815Z,66.75
2018-07-19T09:05:25.651Z,66.58
2018-07-19T09:06:32.503Z,66.24
2018-07-19T09:07:39.271Z,65.94
2018-07-19T09:08:46.118Z,65.69
2018-07-19T09:09:53.005Z,65.36
2018-07-19T09:10:59.815Z,65.05
2018-07-19T09:12:06.631Z,65.05
2018-07-19T09:13:13.489Z,64.84
2018-07-19T09:14:20.274Z,64.67
2018-07-19T09:15:27.025Z,64.61
2018-07-19T09:16:33.834Z,64.28
2018-07-19T09:17:40.642Z,64.06
2018-07-19T09:18:47.622Z,63.74
2018-07-19T09:19:54.639Z,63.63
2018-07-19T09:21:01.424Z,63.51
2018-07-19T09:22:08.210Z,63.57
2018-07-19T09:23:15.003Z,63.62
2018-07-19T09:24:21.818Z,63.56
2018-07-19T09:25:28.632Z,63.28
2018-07-19T09:26:35.399Z,63.10
2018-07-19T09:27:42.225Z,62.66
2018-07-19T09:28:49.038Z,62.65
2018-07-19T09:29:56.016Z,62.31
2018-07-19T09:31:02.824Z,61.83
2018-07-19T09:32:09.619Z,61.73
2018-07-19T09:33:16.449Z,61.59
2018-07-19T09:34:23.283Z,61.46
2018-07-19T09:35:30.092Z,61.29
2018-07-19T09:36:36.921Z,61.55
2018-07-19T09:37:43.851Z,61.51
2018-07-19T09:38:50.717Z,61.09
2018-07-19T09:39:57.710Z,60.69
2018-07-19T09:41:04.516Z,60.51
2018-07-19T09:42:11.324Z,60.40
2018-07-19T09:43:18.356Z,60.22
2018-07-19T09:44:25.242Z,60.00
2018-07-19T09:45:32.079Z,59.84
2018-07-19T09:46:38.830Z,59.89
2018-07-19T09:47:45.625Z,59.65
2018-07-19T09:48:52.801Z,59.17
2018-07-19T09:49:59.666Z,58.95
2018-07-19T09:51:06.682Z,58.92
2018-07-19T09:52:13.570Z,58.64
2018-07-19T09:53:20.435Z,58.42
2018-07-19T09:54:27.239Z,58.29
2018-07-19T09:55:34.365Z,58.15
2018-07-19T09:56:41.102Z,57.82
2018-07-19T09:57:47.868Z,57.92
2018-07-19T09:58:54.653Z,58.18
2018-07-19T10:00:01.437Z,57.93
2018-07-19T10:01:08.198Z,57.88
2018-07-19T10:02:15.215Z,57.67
2018-07-19T10:03:22.022Z,57.35
2018-07-19T10:04:28.839Z,56.95
2018-07-19T10:05:35.673Z,56.46
2018-07-19T10:06:42.430Z,56.32
2018-07-19T10:07:49.232Z,56.18
2018-07-19T10:08:56.095Z,56.01
2018-07-19T10:10:02.924Z,55.77
2018-07-19T10:11:09.648Z,55.37
2018-07-19T10:12:16.516Z,55.36
2018-07-19T10:13:24.000Z,55.53
2018-07-19T10:14:30.438Z,55.52
2018-07-19T10:15:37.237Z,55.25
2018-07-19T10:16:44.001Z,54.97
2018-07-19T10:17:50.805Z,54.88
2018-07-19T10:18:57.673Z,54.54
2018-07-19T10:20:04.551Z,54.65
2018-07-19T10:21:11.363Z,54.47
2018-07-19T10:22:18.219Z,54.21
2018-07-19T10:23:24.976Z,54.23
2018-07-19T10:24:31.727Z,54.05
2018-07-19T10:25:38.559Z,54.02
2018-07-19T10:26:45.423Z,53.84
2018-07-19T10:27:52.197Z,53.81
2018-07-19T10:28:58.979Z,53.70
2018-07-19T10:30:05.880Z,53.66
2018-07-19T10:31:12.789Z,53.42
2018-07-19T10:32:19.748Z,53.34
2018-07-19T10:33:26.459Z,53.39
2018-07-19T10:34:33.258Z,53.15
2018-07-19T10:35:40.093Z,52.95
2018-07-19T10:36:46.861Z,52.84
2018-07-19T10:37:53.748Z,52.84
2018-07-19T10:39:00.539Z,52.83
2018-07-19T10:40:07.370Z,52.95
2018-07-19T10:41:14.175Z,52.67
2018-07-19T10:42:20.984Z,52.76
2018-07-19T10:43:27.906Z,52.72
2018-07-19T10:44:34.778Z,52.58
2018-07-19T10:45:41.583Z,52.27
2018-07-19T10:46:48.381Z,51.93
2018-07-19T10:47:55.222Z,51.92
2018-07-19T10:49:01.986Z,52.05
2018-07-19T10:50:08.811Z,52.04
2018-07-19T10:51:15.659Z,52.11
2018-07-19T10:52:22.463Z,51.94
2018-07-19T10:53:29.307Z,51.65
2018-07-19T10:54:36.115Z,51.48
2018-07-19T10:55:42.867Z,51.62
2018-07-19T10:56:49.647Z,51.66
2018-07-19T10:57:56.384Z,51.45
2018-07-19T10:59:03.142Z,51.21
2018-07-19T11:00:09.991Z,50.73
2018-07-19T11:01:16.806Z,50.60
2018-07-19T11:02:23.871Z,50.38
2018-07-19T11:03:30.710Z,50.12
2018-07-19T11:04:37.474Z,50.21
2018-07-19T11:05:44.248Z,50.02
2018-07-19T11:06:51.138Z,50.05
2018-07-19T11:07:57.963Z,49.86
2018-07-19T11:09:04.706Z,49.74
2018-07-19T11:10:11.736Z,49.42
2018-07-19T11:11:18.535Z,49.71
2018-07-19T11:12:25.374Z,49.72
2018-07-19T11:13:32.106Z,49.43
2018-07-19T11:14:38.906Z,49.34
2018-07-19T11:15:45.826Z,49.09
2018-07-19T11:16:52.583Z,48.88
2018-07-19T11:17:59.351Z,48.80
2018-07-19T11:19:06.219Z,49.09
2018-07-19T11:20:12.950Z,49.14
2018-07-19T11:21:19.747Z,49.40
2018-07-19T11:22:26.502Z,49.38
2018-07-19T11:23:33.284Z,49.21
2018-07-19T11:24:40.055Z,49.09
2018-07-19T11:25:46.838Z,49.49
2018-07-19T11:26:54.031Z,49.73
2018-07-19T11:28:00.827Z,49.45
2018-07-19T11:29:07.631Z,49.20
2018-07-19T11:30:14.409Z,49.26
2018-07-19T11:31:21.261Z,49.57
2018-07-19T11:32:28.092Z,49.16
2018-07-19T11:33:35.171Z,49.14
2018-07-19T11:34:41.973Z,48.76
2018-07-19T11:35:48.830Z,48.77
2018-07-19T11:36:55.694Z,48.72
2018-07-19T11:38:02.482Z,48.42
2018-07-19T11:39:09.341Z,48.54
2018-07-19T11:40:16.122Z,48.46
2018-07-19T11:41:22.902Z,48.23
2018-07-19T11:42:29.653Z,48.28
2018-07-19T11:43:36.423Z,48.23
2018-07-19T11:44:43.154Z,48.29
2018-07-19T11:45:50.217Z,48.65
2018-07-19T11:46:56.994Z,48.66
2018-07-19T11:48:03.758Z,48.15
2018-07-19T11:49:10.518Z,48.21
2018-07-19T11:50:17.279Z,48.00
2018-07-19T11:51:24.058Z,48.12
2018-07-19T11:52:30.828Z,48.08
2018-07-19T11:53:37.606Z,47.89
2018-07-19T11:54:44.396Z,47.68
2018-07-19T11:55:51.195Z,47.68
2018-07-19T11:56:58.044Z,47.47
2018-07-19T11:58:04.791Z,47.29
2018-07-19T11:59:11.635Z,47.52
2018-07-19T12:00:18.444Z,47.27
2018-07-19T12:01:25.242Z,47.44
2018-07-19T12:02:32.038Z,47.63
2018-07-19T12:03:38.859Z,47.22
2018-07-19T12:04:45.698Z,47.22
2018-07-19T12:05:52.454Z,47.18
2018-07-19T12:06:59.309Z,47.11
2018-07-19T12:08:06.071Z,46.84
2018-07-19T12:09:12.874Z,46.94
2018-07-19T12:10:19.603Z,46.61
2018-07-19T12:11:26.394Z,46.38
2018-07-19T12:12:33.279Z,46.34
2018-07-19T12:13:40.055Z,46.33
2018-07-19T12:14:46.806Z,46.53
2018-07-19T12:15:59.953Z,46.41
2018-07-19T12:17:00.304Z,46.37
2018-07-19T12:18:07.121Z,46.37
2018-07-19T12:19:13.870Z,46.25
2018-07-19T12:20:20.635Z,46.11
2018-07-19T12:21:27.390Z,46.13
2018-07-19T12:22:34.206Z,45.99
2018-07-19T12:23:40.988Z,45.76
2018-07-19T12:24:47.763Z,45.68
2018-07-19T12:25:54.521Z,45.66
2018-07-19T12:27:01.387Z,45.50
2018-07-19T12:28:08.151Z,45.46
2018-07-19T12:29:14.876Z,45.49
2018-07-19T12:30:21.632Z,45.80
2018-07-19T12:31:28.411Z,45.88
2018-07-19T12:32:35.155Z,45.74
2018-07-19T12:33:41.917Z,45.95
2018-07-19T12:34:48.638Z,46.02
2018-07-19T12:35:55.468Z,45.93
2018-07-19T12:37:02.258Z,46.00
2018-07-19T12:38:09.032Z,46.00
2018-07-19T12:39:15.865Z,45.91
2018-07-19T12:40:22.590Z,45.80
2018-07-19T12:41:29.367Z,45.85
2018-07-19T12:42:36.163Z,45.61
2018-07-19T12:43:42.922Z,45.68
2018-07-19T12:44:49.676Z,45.83
2018-07-19T12:45:56.458Z,45.54
2018-07-19T12:47:03.226Z,46.00
2018-07-19T12:48:09.991Z,46.40
2018-07-19T12:49:16.832Z,46.81
2018-07-19T12:50:23.557Z,46.72
2018-07-19T12:51:30.390Z,46.14
2018-07-19T12:52:37.152Z,46.04
2018-07-19T12:53:43.903Z,46.04
2018-07-19T12:54:50.650Z,45.91
2018-07-19T12:55:57.419Z,45.70
2018-07-19T12:57:04.222Z,45.54
2018-07-19T12:58:10.874Z,45.69
2018-07-19T12:59:17.610Z,45.34
2018-07-19T13:00:24.539Z,45.22
2018-07-19T13:01:31.284Z,45.22
2018-07-19T13:02:38.033Z,45.30
2018-07-19T13:03:44.769Z,44.96
2018-07-19T13:04:51.602Z,44.88
2018-07-19T13:05:58.346Z,44.96
2018-07-19T13:07:05.102Z,44.69
2018-07-19T13:08:11.884Z,44.82
2018-07-19T13:09:18.656Z,44.52
2018-07-19T13:10:25.430Z,44.53
2018-07-19T13:11:32.172Z,44.57
2018-07-19T13:12:38.934Z,44.67
2018-07-19T13:13:45.714Z,44.58
2018-07-19T13:14:52.489Z,44.46
2018-07-19T13:15:59.262Z,44.26
2018-07-19T13:17:06.003Z,43.96
2018-07-19T13:18:12.791Z,43.75
2018-07-19T13:19:19.507Z,43.81
2018-07-19T13:20:26.555Z,43.83
2018-07-19T13:21:33.351Z,43.76
2018-07-19T13:22:40.109Z,43.67
2018-07-19T13:23:46.879Z,43.63
2018-07-19T13:24:53.675Z,43.61
2018-07-19T13:26:00.433Z,43.62
2018-07-19T13:27:07.314Z,43.43
2018-07-19T13:28:14.107Z,43.55
2018-07-19T13:29:20.886Z,43.44
2018-07-19T13:30:27.945Z,43.43
2018-07-19T13:31:34.690Z,43.26
2018-07-19T13:32:41.476Z,43.33
2018-07-19T13:33:48.330Z,43.19
2018-07-19T13:34:55.130Z,43.20
2018-07-19T13:36:01.874Z,43.04
2018-07-19T13:37:08.832Z,43.08
2018-07-19T13:38:15.662Z,42.82
2018-07-19T13:39:22.385Z,42.85
2018-07-19T13:40:29.271Z,42.93
2018-07-19T13:41:36.032Z,42.93
2018-07-19T13:42:43.151Z,43.23
2018-07-19T13:43:49.881Z,43.10
2018-07-19T13:44:56.610Z,43.20
2018-07-19T13:46:03.364Z,43.02
2018-07-19T13:47:10.119Z,42.85
2018-07-19T13:48:16.949Z,42.92
2018-07-19T13:49:23.813Z,42.89
2018-07-19T13:50:30.583Z,42.83
2018-07-19T13:51:37.357Z,42.84
2018-07-19T13:52:44.134Z,43.04
2018-07-19T13:53:51.251Z,42.77
2018-07-19T13:54:58.146Z,42.71
2018-07-19T13:56:04.955Z,42.60
2018-07-19T13:57:11.817Z,42.53
2018-07-19T13:58:18.677Z,42.23
2018-07-19T13:59:25.420Z,42.16
2018-07-19T14:00:32.210Z,42.24
2018-07-19T14:01:38.971Z,42.21
2018-07-19T14:02:45.657Z,41.98
2018-07-19T14:03:52.437Z,42.29
2018-07-19T14:04:59.153Z,42.09
2018-07-19T14:06:05.934Z,41.89
2018-07-19T14:07:12.622Z,41.84
2018-07-19T14:08:19.394Z,41.57
2018-07-19T14:09:26.171Z,41.45
2018-07-19T14:10:32.886Z,41.47
2018-07-19T14:11:39.936Z,41.50
2018-07-19T14:12:46.824Z,41.48
2018-07-19T14:13:53.567Z,41.67
2018-07-19T14:15:00.310Z,41.76
2018-07-19T14:16:07.024Z,41.66
2018-07-19T14:17:13.927Z,41.77
2018-07-19T14:18:20.722Z,41.81
2018-07-19T14:19:27.493Z,42.21
2018-07-19T14:20:34.352Z,42.36
2018-07-19T14:21:41.122Z,42.46